Time;durP1;ratioP1;P1;durP2;ratioP2;P2;SDS_P1;SDS_P2;PMS_P1;PMS_P2;Temp;Humidity;BMP_temperature;BMP_pressure;BME280_temperature;BME280_humidity;BME280_pressure;Samples;Min_cycle;Max_cycle;Signal;HPM_P1;HPM_P2
2021/04/28 00:00:46;;;;;;;15.17;5.70;;;;;;;17.79;61.61;99491.97;4939203;28;20047;-78
2021/04/28 00:03:12;;;;;;;12.90;6.20;;;;;;;17.77;61.41;99481.00;4961060;28;20039;-75
2021/04/28 00:05:39;;;;;;;9.53;5.67;;;;;;;17.79;61.52;99489.97;4957205;28;20047;-72
2021/04/28 00:08:07;;;;;;;12.43;6.07;;;;;;;17.84;61.61;99480.41;4961558;28;20049;-77
2021/04/28 00:10:38;;;;;;;10.93;5.47;;;;;;;17.81;61.68;99476.31;4963066;28;20419;-78
2021/04/28 00:13:05;;;;;;;10.73;6.43;;;;;;;17.82;61.49;99477.97;4955416;28;20054;-76
2021/04/28 00:15:34;;;;;;;12.32;6.15;;;;;;;17.82;61.47;99475.13;4968918;28;20051;-74
2021/04/28 00:18:03;;;;;;;14.57;6.00;;;;;;;17.81;61.13;99467.00;4961157;28;20055;-71
2021/04/28 00:20:37;;;;;;;11.85;6.70;;;;;;;17.83;61.68;99459.00;4963053;28;20611;-69
2021/04/28 00:23:03;;;;;;;12.77;6.32;;;;;;;17.86;61.35;99461.13;4960091;28;20046;-69
2021/04/28 00:25:40;;;;;;;13.33;6.70;;;;;;;17.89;61.48;99460.41;4959867;28;20047;-73
2021/04/28 00:28:07;;;;;;;13.80;7.03;;;;;;;17.81;61.61;99447.22;4957289;28;20043;-73
2021/04/28 00:30:34;;;;;;;12.50;6.85;;;;;;;17.90;61.76;99453.56;4966456;28;20043;-71
2021/04/28 00:33:00;;;;;;;12.43;6.18;;;;;;;17.92;61.63;99462.53;4948544;28;20050;-68
2021/04/28 00:35:29;;;;;;;13.13;6.57;;;;;;;17.93;61.19;99467.00;4964548;28;20050;-71
2021/04/28 00:37:56;;;;;;;13.00;6.25;;;;;;;17.93;61.43;99461.34;4965021;28;20043;-72
2021/04/28 00:40:29;;;;;;;11.38;6.55;;;;;;;17.88;61.61;99453.09;4958296;28;20055;-71
2021/04/28 00:42:56;;;;;;;14.55;7.47;;;;;;;17.94;61.49;99446.84;4958997;28;20039;-69
2021/04/28 00:45:25;;;;;;;11.15;6.25;;;;;;;17.92;61.51;99443.56;4953704;28;20066;-69
2021/04/28 00:47:52;;;;;;;10.75;5.93;;;;;;;17.84;61.12;99438.06;4963126;28;20054;-69
2021/04/28 00:50:23;;;;;;;15.40;6.75;;;;;;;17.89;61.07;99437.81;4962165;28;20055;-68
2021/04/28 00:52:50;;;;;;;17.52;5.90;;;;;;;17.71;61.21;99415.47;4965695;28;20057;-70
2021/04/28 00:55:20;;;;;;;11.57;6.70;;;;;;;17.75;61.32;99424.06;4967557;28;20054;-69
2021/04/28 00:57:47;;;;;;;12.80;6.15;;;;;;;17.80;61.15;99434.31;4965392;28;20050;-69
2021/04/28 01:00:15;;;;;;;15.68;7.13;;;;;;;17.66;61.10;99418.53;4960710;28;20069;-70
2021/04/28 01:02:42;;;;;;;15.98;7.90;;;;;;;17.70;61.40;99436.41;4963875;28;20050;-68
2021/04/28 01:05:10;;;;;;;14.02;6.75;;;;;;;17.60;61.27;99424.78;4962002;28;20475;-70
2021/04/28 01:07:38;;;;;;;13.43;6.47;;;;;;;17.42;61.40;99407.28;4968239;28;20412;-74
2021/04/28 01:10:07;;;;;;;11.23;6.63;;;;;;;17.47;61.50;99421.13;4967564;28;20046;-75
2021/04/28 01:12:35;;;;;;;13.43;6.28;;;;;;;17.39;61.71;99407.97;4968830;28;20389;-75
2021/04/28 01:15:09;;;;;;;19.13;8.60;;;;;;;17.47;61.77;99415.50;4957273;28;20047;-69
2021/04/28 01:17:36;;;;;;;15.97;8.37;;;;;;;17.43;61.53;99415.38;4963397;28;20519;-69
2021/04/28 01:20:05;;;;;;;16.43;7.37;;;;;;;17.50;61.99;99414.78;4966855;28;20066;-74
2021/04/28 01:22:40;;;;;;;11.18;6.30;;;;;;;17.42;61.49;99396.81;4967372;28;20066;-75
2021/04/28 01:25:08;;;;;;;18.08;6.75;;;;;;;17.53;62.06;99408.44;4967165;28;20062;-70
2021/04/28 01:27:38;;;;;;;15.38;6.55;;;;;;;17.49;62.11;99401.84;4974365;28;20039;-67
2021/04/28 01:30:07;;;;;;;13.95;6.57;;;;;;;17.46;62.38;99391.28;4964808;28;20067;-67
2021/04/28 01:32:35;;;;;;;13.95;7.25;;;;;;;17.56;62.08;99404.09;4961804;28;20053;-66
2021/04/28 01:35:03;;;;;;;16.67;7.47;;;;;;;17.59;61.92;99401.38;4969954;28;20544;-67
2021/04/28 01:37:31;;;;;;;17.48;7.40;;;;;;;17.62;61.75;99403.47;4967565;28;20058;-67
2021/04/28 01:40:00;;;;;;;13.40;7.30;;;;;;;17.46;62.11;99382.81;4967202;28;20055;-67
2021/04/28 01:42:27;;;;;;;15.63;8.23;;;;;;;17.44;61.70;99386.00;4961678;28;20042;-70
2021/04/28 01:44:55;;;;;;;13.02;7.00;;;;;;;17.46;62.05;99394.09;4960866;28;20483;-69
2021/04/28 01:47:22;;;;;;;18.27;7.68;;;;;;;17.44;62.08;99396.47;4966035;28;20512;-69
2021/04/28 01:49:50;;;;;;;13.90;6.83;;;;;;;17.35;61.66;99378.84;4964948;28;20468;-70
2021/04/28 01:52:18;;;;;;;12.93;7.05;;;;;;;17.42;61.85;99387.53;4960580;28;20541;-68
2021/04/28 01:54:47;;;;;;;13.55;7.30;;;;;;;17.44;62.01;99391.66;4965114;28;20074;-69
2021/04/28 01:57:16;;;;;;;14.23;7.60;;;;;;;17.39;61.96;99385.41;4964365;28;20046;-68
2021/04/28 01:59:43;;;;;;;16.08;8.20;;;;;;;17.39;62.12;99391.88;4964905;28;20047;-67
2021/04/28 02:02:10;;;;;;;13.73;7.85;;;;;;;17.43;61.89;99389.16;4961801;28;20518;-68
2021/04/28 02:04:38;;;;;;;14.07;7.63;;;;;;;17.45;61.85;99390.47;4964826;28;20058;-67
2021/04/28 02:07:05;;;;;;;15.07;7.73;;;;;;;17.39;61.80;99369.28;4965857;28;21027;-69
2021/04/28 02:09:31;;;;;;;17.13;9.03;;;;;;;17.43;62.05;99375.03;4962807;28;20097;-69
2021/04/28 02:11:58;;;;;;;18.93;8.23;;;;;;;17.40;62.28;99387.88;4961947;28;20190;-69
2021/04/28 02:14:26;;;;;;;14.70;7.17;;;;;;;17.18;62.25;99358.16;4968806;28;20051;-70
2021/04/28 02:16:53;;;;;;;14.87;7.13;;;;;;;17.22;62.32;99376.00;4965151;28;20047;-74
2021/04/28 02:19:20;;;;;;;15.90;7.73;;;;;;;17.22;62.48;99380.84;4964573;28;20061;-72
2021/04/28 02:21:49;;;;;;;13.50;7.53;;;;;;;17.06;62.97;99380.75;4966284;28;20073;-72
2021/04/28 02:24:16;;;;;;;17.80;7.73;;;;;;;17.04;63.07;99380.25;4962011;28;20185;-74
2021/04/28 02:26:43;;;;;;;12.93;7.07;;;;;;;16.94;63.36;99375.09;4966354;28;20042;-74
2021/04/28 02:29:10;;;;;;;14.07;6.87;;;;;;;16.84;63.79;99390.47;4963913;28;20050;-72
2021/04/28 02:31:37;;;;;;;13.50;7.27;;;;;;;16.69;64.34;99386.31;4968211;28;20129;-74
2021/04/28 02:34:05;;;;;;;14.52;7.13;;;;;;;16.55;64.79;99381.00;4961852;28;20047;-73
2021/04/28 02:36:34;;;;;;;14.40;7.70;;;;;;;16.36;65.33;99383.53;4959914;28;20047;-73
2021/04/28 02:39:08;;;;;;;16.67;8.43;;;;;;;16.39;65.46;99382.03;4958594;28;20083;-73
2021/04/28 02:41:41;;;;;;;10.30;7.23;;;;;;;16.33;65.43;99382.22;4967080;28;20385;-66
2021/04/28 02:44:10;;;;;;;15.77;7.40;;;;;;;16.37;65.31;99390.00;4962064;28;20057;-73
2021/04/28 02:46:38;;;;;;;17.83;7.93;;;;;;;16.32;65.16;99372.13;4964773;28;20047;-74
2021/04/28 02:49:06;;;;;;;13.83;6.23;;;;;;;16.26;65.49;99367.88;4965631;28;20055;-78
2021/04/28 02:51:34;;;;;;;16.07;7.97;;;;;;;16.37;65.32;99378.72;4957628;28;20050;-73
2021/04/28 02:54:02;;;;;;;14.43;6.93;;;;;;;16.34;65.57;99386.72;4964879;28;20055;-75
2021/04/28 02:56:29;;;;;;;14.20;7.63;;;;;;;16.29;65.57;99377.66;4967179;28;20043;-72
2021/04/28 02:58:56;;;;;;;15.70;7.77;;;;;;;16.24;65.63;99380.66;4962722;28;20408;-72
2021/04/28 03:01:26;;;;;;;14.97;7.37;;;;;;;16.11;66.40;99382.63;4963603;28;20047;-72
2021/04/28 03:03:54;;;;;;;14.20;7.93;;;;;;;16.11;66.26;99377.81;4960500;28;20043;-78
2021/04/28 03:06:20;;;;;;;13.07;6.43;;;;;;;16.13;66.28;99374.66;4959202;28;20098;-75
2021/04/28 03:08:47;;;;;;;16.50;6.97;;;;;;;16.04;66.12;99363.47;4966333;28;20047;-76
2021/04/28 03:11:15;;;;;;;14.57;7.50;;;;;;;16.09;66.34;99368.88;4964352;28;20067;-76
2021/04/28 03:13:42;;;;;;;15.23;7.47;;;;;;;15.94;66.60;99357.47;4962887;28;20051;-77
2021/04/28 03:16:12;;;;;;;15.00;8.23;;;;;;;15.83;66.68;99343.81;4961798;28;20042;-79
2021/04/28 03:18:38;;;;;;;12.40;6.65;;;;;;;15.77;66.84;99336.75;4964011;28;20054;-77
2021/04/28 03:21:07;;;;;;;17.03;8.27;;;;;;;15.99;66.72;99366.50;4959954;28;20392;-75
2021/04/28 03:23:34;;;;;;;14.73;7.50;;;;;;;16.00;66.88;99370.13;4958103;28;20050;-76
2021/04/28 03:26:02;;;;;;;15.52;7.45;;;;;;;15.81;66.83;99340.50;4958725;28;20456;-75
2021/04/28 03:28:30;;;;;;;14.30;7.03;;;;;;;16.06;66.76;99365.94;4965945;28;20515;-74
2021/04/28 03:30:57;;;;;;;15.40;7.47;;;;;;;16.05;66.56;99361.50;4963105;28;20047;-76
2021/04/28 03:33:23;;;;;;;17.83;7.43;;;;;;;15.99;67.08;99362.88;4958256;28;20134;-77
2021/04/28 03:35:50;;;;;;;15.17;7.73;;;;;;;15.75;67.40;99335.44;4961324;28;20131;-77
2021/04/28 03:38:16;;;;;;;17.33;7.97;;;;;;;15.84;67.21;99348.25;4960280;28;20051;-68
2021/04/28 03:40:44;;;;;;;16.10;7.40;;;;;;;15.91;67.10;99355.34;4965957;28;20357;-69
2021/04/28 03:43:11;;;;;;;14.43;8.20;;;;;;;15.98;67.19;99359.22;4962320;28;20122;-64
2021/04/28 03:45:37;;;;;;;16.30;7.53;;;;;;;15.97;67.01;99351.97;4967199;28;20541;-66
2021/04/28 03:48:04;;;;;;;15.63;8.23;;;;;;;15.98;67.13;99349.97;4960283;28;20054;-66
2021/04/28 03:50:30;;;;;;;20.33;9.20;;;;;;;15.98;67.20;99361.22;4961062;28;20134;-68
2021/04/28 03:53:05;;;;;;;14.50;7.70;;;;;;;16.00;67.03;99359.72;4961481;28;20065;-71
2021/04/28 03:55:31;;;;;;;17.23;8.33;;;;;;;16.10;66.63;99350.00;4958411;28;20047;-76
2021/04/28 03:57:57;;;;;;;14.80;7.67;;;;;;;16.05;66.38;99339.78;4956864;28;20057;-70
2021/04/28 04:00:24;;;;;;;14.90;8.03;;;;;;;16.06;66.74;99340.59;4966291;28;20062;-72
2021/04/28 04:02:50;;;;;;;17.07;8.63;;;;;;;16.03;66.87;99350.59;4964509;28;20499;-75
2021/04/28 04:05:17;;;;;;;14.40;6.87;;;;;;;16.03;66.85;99353.41;4968914;28;20051;-74
2021/04/28 04:07:46;;;;;;;15.17;8.20;;;;;;;15.99;67.03;99351.59;4960428;28;20156;-75
2021/04/28 04:10:12;;;;;;;14.33;7.93;;;;;;;16.00;66.65;99333.53;4966106;28;20061;-71
2021/04/28 04:12:39;;;;;;;20.90;8.57;;;;;;;16.05;66.69;99333.31;4956781;28;20042;-69
2021/04/28 04:15:06;;;;;;;19.30;7.90;;;;;;;16.15;66.43;99340.53;4962772;28;20502;-71
2021/04/28 04:17:32;;;;;;;20.67;8.00;;;;;;;16.12;66.75;99347.66;4961199;28;20065;-71
2021/04/28 04:20:02;;;;;;;13.40;7.60;;;;;;;15.91;66.75;99325.19;4964624;28;20047;-75
2021/04/28 04:22:28;;;;;;;14.35;7.70;;;;;;;15.92;67.18;99340.09;4957336;28;20483;-66
2021/04/28 04:24:54;;;;;;;15.10;7.80;;;;;;;15.76;67.35;99323.84;4959760;28;21171;-65
2021/04/28 04:27:23;;;;;;;14.60;8.57;;;;;;;15.84;67.65;99334.19;4957098;28;20047;-66
2021/04/28 04:29:50;;;;;;;15.33;8.30;;;;;;;15.68;67.97;99321.91;4963234;28;20085;-69
2021/04/28 04:32:16;;;;;;;14.70;7.60;;;;;;;15.84;67.66;99334.19;4965497;28;20062;-70
2021/04/28 04:34:43;;;;;;;14.37;7.33;;;;;;;15.80;68.07;99333.25;4963555;28;20452;-68
2021/04/28 04:37:10;;;;;;;16.47;8.67;;;;;;;15.60;68.27;99306.72;4962639;28;20050;-70
2021/04/28 04:39:36;;;;;;;13.87;7.53;;;;;;;15.70;68.42;99325.22;4958785;28;20051;-72
2021/04/28 04:42:02;;;;;;;12.33;6.20;;;;;;;15.79;68.09;99325.13;4965105;28;20411;-68
2021/04/28 04:44:30;;;;;;;14.00;7.23;;;;;;;15.62;68.40;99304.41;4957297;28;20067;-69
2021/04/28 04:46:56;;;;;;;19.03;7.90;;;;;;;15.68;68.80;99327.53;4962584;28;20138;-70
2021/04/28 04:49:22;;;;;;;14.03;7.73;;;;;;;15.84;67.88;99322.94;4966321;28;20098;-70
2021/04/28 04:51:49;;;;;;;19.67;8.70;;;;;;;15.94;67.72;99332.94;4962445;28;20447;-71
2021/04/28 04:54:15;;;;;;;16.90;8.83;;;;;;;15.93;67.52;99317.22;4955203;28;20051;-71
2021/04/28 04:56:41;;;;;;;16.77;8.00;;;;;;;15.86;67.68;99306.53;4959916;28;20047;-69
2021/04/28 04:59:07;;;;;;;15.43;8.27;;;;;;;15.90;67.35;99301.03;4965105;28;20054;-70
2021/04/28 05:01:34;;;;;;;17.97;7.97;;;;;;;15.97;67.55;99311.72;4958894;28;20523;-72
2021/04/28 05:04:00;;;;;;;22.33;9.30;;;;;;;16.02;67.62;99317.13;4965405;28;20050;-69
2021/04/28 05:06:26;;;;;;;17.30;8.07;;;;;;;16.05;67.35;99316.44;4957173;28;20055;-71
2021/04/28 05:08:53;;;;;;;13.23;6.87;;;;;;;15.92;67.38;99307.13;4966766;28;20121;-71
2021/04/28 05:11:19;;;;;;;13.80;7.90;;;;;;;15.88;67.91;99320.25;4966050;28;20046;-71
2021/04/28 05:13:45;;;;;;;13.10;6.90;;;;;;;15.92;67.58;99318.38;4953356;28;20103;-71
2021/04/28 05:16:12;;;;;;;14.73;6.97;;;;;;;15.91;67.52;99311.09;4966227;28;20051;-71
2021/04/28 05:18:39;;;;;;;16.00;7.67;;;;;;;15.87;67.74;99319.44;4959814;28;20050;-70
2021/04/28 05:21:05;;;;;;;11.73;6.80;;;;;;;15.83;67.47;99298.78;4955593;28;20058;-79
2021/04/28 05:23:31;;;;;;;15.27;7.70;;;;;;;15.87;67.49;99310.97;4954456;28;20049;-72
2021/04/28 05:25:58;;;;;;;20.20;7.33;;;;;;;15.87;67.42;99312.97;4957792;28;20065;-75
2021/04/28 05:28:24;;;;;;;13.70;7.07;;;;;;;15.84;67.18;99320.13;4962032;28;20048;-72
2021/04/28 05:30:50;;;;;;;14.30;7.47;;;;;;;15.67;67.68;99317.47;4958425;28;20053;-74
2021/04/28 05:33:17;;;;;;;11.90;5.93;;;;;;;15.47;68.40;99315.44;4959985;28;20043;-68
2021/04/28 05:35:43;;;;;;;13.23;7.17;;;;;;;15.46;68.45;99323.06;4960465;28;20536;-71
2021/04/28 05:38:09;;;;;;;14.43;7.23;;;;;;;15.40;68.54;99314.00;4960287;28;20047;-68
2021/04/28 05:40:36;;;;;;;18.83;8.20;;;;;;;15.65;68.01;99323.38;4960649;28;20046;-70
2021/04/28 05:43:02;;;;;;;19.03;8.97;;;;;;;15.56;68.24;99311.41;4962962;28;20121;-70
2021/04/28 05:45:41;;;;;;;15.97;7.57;;;;;;;15.65;67.98;99329.00;4962794;28;20042;-65
2021/04/28 05:48:15;;;;;;;17.60;8.53;;;;;;;15.51;68.09;99302.34;4966409;28;20044;-66
2021/04/28 05:50:44;;;;;;;19.20;8.43;;;;;;;15.76;67.66;99328.63;4964412;28;20382;-66
2021/04/28 05:53:11;;;;;;;13.73;5.70;;;;;;;15.81;67.72;99334.88;4960757;28;20052;-66
2021/04/28 05:55:37;;;;;;;15.03;8.07;;;;;;;15.76;67.58;99332.28;4965997;28;20050;-63
2021/04/28 05:58:05;;;;;;;13.43;8.17;;;;;;;15.60;67.93;99319.97;4962401;28;20047;-67
2021/04/28 06:00:33;;;;;;;10.33;6.07;;;;;;;15.71;67.93;99337.28;4965148;28;20043;-69
2021/04/28 06:03:03;;;;;;;16.57;8.40;;;;;;;15.61;68.08;99335.69;4970955;28;20043;-75
2021/04/28 06:05:31;;;;;;;15.43;7.30;;;;;;;15.51;68.44;99330.47;4965120;28;21055;-66
2021/04/28 06:07:57;;;;;;;14.50;8.23;;;;;;;15.32;68.71;99320.53;4967132;28;20777;-67
2021/04/28 06:10:24;;;;;;;11.57;6.57;;;;;;;15.48;68.43;99343.22;4962729;28;20047;-66
2021/04/28 06:12:52;;;;;;;18.07;9.03;;;;;;;15.47;68.55;99346.41;4970946;28;20103;-74
2021/04/28 06:15:20;;;;;;;17.65;7.90;;;;;;;15.56;68.41;99331.09;4963229;28;20055;-67
2021/04/28 06:17:46;;;;;;;15.40;8.00;;;;;;;15.63;68.12;99333.38;4960741;28;20054;-66
2021/04/28 06:20:14;;;;;;;16.67;8.23;;;;;;;15.78;67.85;99331.94;4966082;28;20051;-67
2021/04/28 06:22:42;;;;;;;18.20;9.33;;;;;;;16.00;67.74;99341.97;4955092;28;20054;-68
2021/04/28 06:25:10;;;;;;;20.80;10.33;;;;;;;16.14;67.18;99342.53;4961975;28;20062;-70
2021/04/28 06:27:37;;;;;;;17.97;9.17;;;;;;;16.19;67.34;99339.47;4956198;28;20048;-69
2021/04/28 06:30:05;;;;;;;19.83;9.70;;;;;;;16.30;67.15;99343.47;4961902;28;20079;-68
2021/04/28 06:32:32;;;;;;;18.03;9.10;;;;;;;16.31;67.32;99347.97;4964228;28;20047;-69
2021/04/28 06:35:02;;;;;;;16.33;8.83;;;;;;;16.38;67.03;99346.56;4962304;28;20050;-67
2021/04/28 06:37:29;;;;;;;16.98;9.40;;;;;;;16.37;67.03;99342.91;4958804;28;20492;-66
2021/04/28 06:39:55;;;;;;;15.70;9.20;;;;;;;16.35;67.17;99325.56;4962286;28;20047;-68
2021/04/28 06:42:21;;;;;;;20.87;9.73;;;;;;;16.51;66.69;99340.63;4940387;28;20484;-68
2021/04/28 06:44:48;;;;;;;24.83;10.07;;;;;;;16.65;66.57;99351.56;4963825;28;20093;-69
2021/04/28 06:47:15;;;;;;;18.03;8.17;;;;;;;16.61;66.51;99327.22;4957506;28;20058;-68
2021/04/28 06:49:43;;;;;;;16.73;8.17;;;;;;;16.69;66.16;99349.66;4965803;28;20126;-69
2021/04/28 06:52:10;;;;;;;18.13;8.57;;;;;;;16.74;66.27;99349.47;4960757;28;20050;-70
2021/04/28 06:54:36;;;;;;;14.50;8.30;;;;;;;16.66;66.01;99353.19;4962598;28;20046;-68
2021/04/28 06:57:08;;;;;;;16.40;7.82;;;;;;;16.72;65.96;99357.44;4960010;28;20445;-66
2021/04/28 06:59:34;;;;;;;15.07;8.20;;;;;;;16.78;65.70;99350.41;4961078;28;20065;-68
2021/04/28 07:02:01;;;;;;;15.43;8.33;;;;;;;16.83;65.30;99343.72;4959772;28;20071;-69
2021/04/28 07:04:29;;;;;;;17.37;9.00;;;;;;;16.95;65.74;99357.81;4957627;28;20059;-68
2021/04/28 07:07:00;;;;;;;17.00;8.60;;;;;;;17.05;65.49;99359.34;4959845;28;20385;-68
2021/04/28 07:09:27;;;;;;;18.98;8.85;;;;;;;17.00;65.07;99343.47;4964098;28;20047;-68
2021/04/28 07:11:53;;;;;;;14.77;8.70;;;;;;;17.19;65.14;99364.63;4963958;28;20078;-70
2021/04/28 07:14:19;;;;;;;21.20;8.90;;;;;;;17.24;64.95;99368.03;4959824;28;20455;-70
2021/04/28 07:16:48;;;;;;;16.97;7.83;;;;;;;17.26;64.59;99365.69;4960388;28;20057;-69
2021/04/28 07:19:14;;;;;;;14.00;7.80;;;;;;;17.27;64.48;99358.03;4965109;28;20054;-69
2021/04/28 07:21:44;;;;;;;12.63;7.38;;;;;;;17.38;64.34;99366.84;4966510;28;20057;-69
2021/04/28 07:24:10;;;;;;;17.48;7.60;;;;;;;17.46;64.30;99368.69;4961812;28;20039;-70
2021/04/28 07:26:36;;;;;;;14.20;7.68;;;;;;;17.55;64.02;99371.41;4953518;28;20047;-70
2021/04/28 07:29:03;;;;;;;18.05;8.27;;;;;;;17.64;64.03;99370.09;4953419;28;20055;-70
2021/04/28 07:31:30;;;;;;;14.98;8.13;;;;;;;17.60;63.90;99338.06;4953866;28;20055;-69
2021/04/28 07:34:00;;;;;;;17.15;7.70;;;;;;;17.88;63.32;99365.53;4953671;28;20070;-70
2021/04/28 07:36:30;;;;;;;14.25;8.65;;;;;;;17.95;63.01;99360.94;4958184;28;20048;-70
2021/04/28 07:38:59;;;;;;;16.60;8.32;;;;;;;17.90;62.86;99355.53;4955686;28;20506;-69
2021/04/28 07:41:25;;;;;;;19.40;8.32;;;;;;;18.13;63.08;99378.41;4953742;28;20142;-68
2021/04/28 07:43:51;;;;;;;18.20;8.02;;;;;;;18.17;62.46;99376.50;4953594;28;20039;-69
2021/04/28 07:46:20;;;;;;;18.05;8.77;;;;;;;18.30;62.73;99373.63;4952084;28;20504;-68
2021/04/28 07:48:47;;;;;;;15.23;8.70;;;;;;;18.34;62.24;99374.53;4956901;28;20049;-69
2021/04/28 07:51:13;;;;;;;17.42;8.43;;;;;;;18.45;62.53;99378.47;4957245;28;20175;-70
2021/04/28 07:53:39;;;;;;;13.95;7.55;;;;;;;18.55;62.00;99392.09;4952799;28;20485;-69
2021/04/28 07:56:05;;;;;;;11.35;6.90;;;;;;;18.52;61.98;99391.97;4954803;28;20053;-69
2021/04/28 07:58:32;;;;;;;13.05;7.63;;;;;;;18.50;62.05;99391.53;4954051;28;20043;-71
2021/04/28 08:00:58;;;;;;;11.35;7.05;;;;;;;18.55;61.94;99391.25;4953279;28;20125;-69
2021/04/28 08:03:24;;;;;;;15.70;8.13;;;;;;;18.51;62.16;99387.53;4952959;28;20130;-70
2021/04/28 08:05:50;;;;;;;16.60;8.63;;;;;;;18.56;61.87;99399.38;4952553;28;20485;-70
2021/04/28 08:08:17;;;;;;;17.00;9.30;;;;;;;18.60;61.85;99394.66;4952726;28;20051;-70
2021/04/28 08:10:44;;;;;;;17.25;9.10;;;;;;;18.30;61.81;99351.84;4953891;28;20393;-69
2021/04/28 08:13:11;;;;;;;17.75;9.95;;;;;;;18.61;61.94;99396.28;4960358;28;20057;-70
2021/04/28 08:15:39;;;;;;;17.88;9.55;;;;;;;18.45;62.11;99392.59;4961150;28;20097;-70
2021/04/28 08:18:06;;;;;;;16.30;9.80;;;;;;;18.31;62.32;99389.38;4963909;28;20065;-70
2021/04/28 08:20:36;;;;;;;20.67;10.18;;;;;;;18.21;62.54;99390.72;4961399;28;20043;-69
2021/04/28 08:23:02;;;;;;;16.27;9.80;;;;;;;18.17;62.49;99401.94;4960630;28;20050;-69
2021/04/28 08:25:31;;;;;;;17.63;8.77;;;;;;;18.13;62.53;99395.38;4960720;28;20055;-69
2021/04/28 08:27:59;;;;;;;11.73;6.72;;;;;;;18.03;62.54;99395.88;4969530;28;20566;-68
2021/04/28 08:30:25;;;;;;;12.20;6.80;;;;;;;17.96;62.76;99387.19;4959796;28;20058;-69
2021/04/28 08:33:10;;;;;;;14.32;7.47;;;;;;;17.95;63.17;99397.66;4962633;28;20066;-70
2021/04/28 08:35:37;;;;;;;11.40;6.40;;;;;;;17.93;63.08;99399.19;4964556;28;20893;-69
2021/04/28 08:38:03;;;;;;;14.25;5.93;;;;;;;17.91;63.18;99398.72;4964712;28;20043;-68
2021/04/28 08:40:33;;;;;;;9.15;4.22;;;;;;;17.75;62.88;99378.88;4959807;28;20054;-69
2021/04/28 08:43:03;;;;;;;8.25;4.30;;;;;;;17.73;62.73;99379.22;4961644;28;20049;-69
2021/04/28 08:45:29;;;;;;;11.02;4.00;;;;;;;17.97;62.81;99397.31;4960971;28;20051;-70
2021/04/28 08:47:59;;;;;;;7.80;4.18;;;;;;;17.99;62.81;99403.44;4956905;28;20063;-69
2021/04/28 08:50:25;;;;;;;6.05;3.35;;;;;;;17.92;62.85;99401.22;4962256;28;20047;-70
2021/04/28 08:52:55;;;;;;;21.90;3.90;;;;;;;17.93;62.35;99410.50;4968125;28;20051;-70
2021/04/28 08:55:22;;;;;;;6.70;2.78;;;;;;;17.92;62.52;99409.69;4954614;28;20413;-70
2021/04/28 08:57:48;;;;;;;6.63;2.60;;;;;;;17.84;62.40;99409.81;4957615;28;20075;-69
2021/04/28 09:00:15;;;;;;;8.80;3.33;;;;;;;17.86;62.59;99418.75;4962442;28;20081;-69
2021/04/28 09:02:54;;;;;;;7.80;3.30;;;;;;;17.91;62.52;99418.50;4963055;28;20059;-68
2021/04/28 09:05:21;;;;;;;8.10;2.80;;;;;;;17.83;62.43;99419.47;4952806;28;20164;-70
2021/04/28 09:07:48;;;;;;;9.05;3.20;;;;;;;17.88;62.35;99433.31;4957677;28;20074;-70
2021/04/28 09:10:18;;;;;;;5.15;2.38;;;;;;;17.72;62.20;99421.94;4957286;28;20493;-70
2021/04/28 09:13:01;;;;;;;4.93;3.05;;;;;;;17.66;62.48;99427.00;4960623;28;20047;-70
2021/04/28 09:15:41;;;;;;;11.02;2.88;;;;;;;17.65;62.76;99433.84;4962216;28;20051;-70
2021/04/28 09:18:10;;;;;;;7.35;3.50;;;;;;;17.67;62.45;99431.47;4966685;28;20038;-70
2021/04/28 09:20:39;;;;;;;9.63;2.90;;;;;;;17.77;62.74;99447.13;4973042;28;20046;-69
2021/04/28 09:23:17;;;;;;;10.55;3.80;;;;;;;17.69;62.39;99436.75;4967896;28;20054;-70
2021/04/28 09:25:49;;;;;;;8.68;3.75;;;;;;;17.77;62.73;99442.28;4973477;28;20042;-70
2021/04/28 09:28:29;;;;;;;8.52;3.72;;;;;;;17.77;62.69;99439.47;4971347;28;20474;-70
2021/04/28 09:31:08;;;;;;;6.95;3.42;;;;;;;17.89;62.57;99449.13;4967971;28;20050;-69
2021/04/28 09:33:40;;;;;;;9.35;3.55;;;;;;;17.92;62.28;99446.41;4970837;28;21964;-68
2021/04/28 09:36:13;;;;;;;7.15;2.58;;;;;;;17.97;61.99;99450.97;4969892;28;20058;-68
2021/04/28 09:38:57;;;;;;;7.60;3.28;;;;;;;17.80;62.29;99420.19;4962011;28;20050;-68
2021/04/28 09:41:45;;;;;;;6.38;3.25;;;;;;;18.05;62.27;99454.81;4959351;28;20054;-68
2021/04/28 09:44:20;;;;;;;7.47;2.58;;;;;;;18.14;61.99;99447.84;4957794;28;20053;-68
2021/04/28 09:47:18;;;;;;;5.90;3.08;;;;;;;18.20;61.65;99466.19;4962509;28;20059;-66
2021/04/28 09:49:58;;;;;;;6.68;3.15;;;;;;;18.23;61.65;99459.84;4961158;28;20140;-69
2021/04/28 09:52:30;;;;;;;6.10;3.20;;;;;;;18.26;61.90;99449.84;4959090;28;20047;-68
2021/04/28 09:55:06;;;;;;;12.63;2.97;;;;;;;18.12;61.63;99429.59;4961368;28;20638;-67
2021/04/28 09:57:37;;;;;;;6.97;2.80;;;;;;;18.24;61.39;99444.53;4962612;28;20043;-68
2021/04/28 10:00:24;;;;;;;8.38;3.13;;;;;;;18.26;61.18;99451.84;4961528;28;20050;-68
2021/04/28 10:02:58;;;;;;;9.73;3.30;;;;;;;18.23;61.24;99454.19;4961909;28;20047;-68
2021/04/28 10:05:38;;;;;;;4.78;2.80;;;;;;;18.32;61.40;99450.38;4959258;28;20043;-67
2021/04/28 10:08:16;;;;;;;3.95;2.72;;;;;;;18.31;61.08;99454.41;4962352;28;20063;-67
2021/04/28 10:10:44;;;;;;;9.73;3.10;;;;;;;18.27;61.46;99456.31;4960520;28;20051;-68
2021/04/28 10:13:11;;;;;;;7.43;2.90;;;;;;;18.34;61.22;99459.34;4964058;28;20492;-67
2021/04/28 10:15:37;;;;;;;9.25;3.10;;;;;;;18.24;60.84;99438.88;4965960;28;20443;-68
2021/04/28 10:18:06;;;;;;;7.03;3.35;;;;;;;18.46;60.60;99457.28;4959932;28;20050;-68
2021/04/28 10:20:34;;;;;;;6.32;2.85;;;;;;;18.49;60.14;99438.75;4957045;28;20184;-66
2021/04/28 10:23:12;;;;;;;5.35;2.40;;;;;;;18.40;60.52;99440.94;4965270;28;20105;-68
2021/04/28 10:25:39;;;;;;;6.10;2.50;;;;;;;18.50;60.27;99457.38;4958564;28;20541;-67
2021/04/28 10:28:10;;;;;;;5.03;2.53;;;;;;;18.46;60.31;99450.78;4961705;28;20039;-67
2021/04/28 10:30:41;;;;;;;3.15;2.03;;;;;;;18.50;60.32;99448.91;4964829;28;20126;-68
2021/04/28 10:33:33;;;;;;;5.93;2.50;;;;;;;18.49;59.93;99452.88;4957771;28;20047;-69
2021/04/28 10:36:22;;;;;;;7.28;3.10;;;;;;;18.47;60.11;99452.44;4966513;28;20066;-67
2021/04/28 10:38:54;;;;;;;6.15;2.92;;;;;;;18.40;60.19;99452.25;4958400;28;20046;-68
2021/04/28 10:41:42;;;;;;;6.57;2.60;;;;;;;18.29;60.28;99434.97;4961474;28;20055;-67
2021/04/28 10:44:30;;;;;;;13.48;2.85;;;;;;;18.37;60.22;99453.78;4959552;28;20050;-67
2021/04/28 10:47:21;;;;;;;5.53;2.40;;;;;;;18.31;60.18;99448.75;4958157;28;20420;-68
2021/04/28 10:50:14;;;;;;;5.63;2.88;;;;;;;18.31;60.25;99451.56;4936511;28;20043;-68
2021/04/28 10:52:45;;;;;;;6.60;2.55;;;;;;;18.18;60.35;99428.19;4964379;28;20133;-67
2021/04/28 10:55:39;;;;;;;7.82;2.72;;;;;;;18.33;60.16;99449.22;4960462;28;20057;-67
2021/04/28 10:58:28;;;;;;;4.65;1.95;;;;;;;18.33;60.16;99446.38;4959854;28;20412;-67
2021/04/28 11:01:01;;;;;;;6.22;3.20;;;;;;;18.31;59.82;99455.22;4959556;28;20043;-67
2021/04/28 11:03:28;;;;;;;5.90;3.05;;;;;;;18.37;60.00;99452.97;4958494;28;20043;-67
2021/04/28 11:05:55;;;;;;;5.10;2.83;;;;;;;18.30;59.96;99447.09;4964346;28;20484;-68
2021/04/28 11:08:31;;;;;;;6.28;2.38;;;;;;;18.42;59.67;99452.69;4955165;28;20051;-66
2021/04/28 11:10:57;;;;;;;5.63;2.08;;;;;;;18.49;59.80;99452.88;4961668;28;20514;-67
2021/04/28 11:13:24;;;;;;;3.65;1.67;;;;;;;18.53;59.78;99459.50;4962056;28;20417;-67
2021/04/28 11:15:52;;;;;;;8.95;2.97;;;;;;;18.59;59.64;99449.53;4961343;28;20054;-67
2021/04/28 11:18:31;;;;;;;6.70;2.85;;;;;;;18.63;59.58;99452.47;4958265;28;20504;-68
2021/04/28 11:21:16;;;;;;;4.97;2.70;;;;;;;18.71;59.91;99459.97;4956812;28;20590;-68
2021/04/28 11:24:03;;;;;;;4.60;3.03;;;;;;;18.73;59.58;99457.63;4959782;28;20050;-67
2021/04/28 11:26:30;;;;;;;5.72;2.47;;;;;;;18.73;59.86;99453.97;4965745;28;20050;-68
2021/04/28 11:28:57;;;;;;;6.30;3.15;;;;;;;18.79;59.56;99456.19;4966788;28;20051;-68
2021/04/28 11:31:54;;;;;;;5.93;2.90;;;;;;;18.74;59.73;99445.16;4957929;28;20098;-67
2021/04/28 11:34:26;;;;;;;4.93;2.60;;;;;;;18.86;59.68;99464.03;4957643;28;20058;-67
2021/04/28 11:36:54;;;;;;;5.70;3.58;;;;;;;18.80;59.22;99449.34;4965549;28;20403;-67